createdAt,value
2022-10-23T06:09:47.871Z,12.70
2022-10-23T09:02:15.419Z,14.30
2022-10-23T18:07:47.768Z,15.20
2022-10-23T18:10:20.572Z,15.20
2022-10-23T18:12:54.516Z,15.20
2022-10-23T18:32:52.968Z,15.40
2022-10-23T18:41:42.642Z,15.40
2022-10-23T18:44:19.290Z,15.40
2022-10-23T18:46:52.502Z,15.50
2022-10-23T18:49:25.695Z,15.50
2022-10-23T18:51:58.442Z,15.50
2022-10-23T18:54:31.711Z,15.60
2022-10-23T18:57:05.579Z,15.60
2022-10-23T19:02:52.330Z,15.60
2022-10-23T19:05:25.652Z,15.60
2022-10-23T19:17:41.117Z,15.60
2022-10-23T19:20:19.159Z,15.50
2022-10-23T19:22:53.673Z,15.50
2022-10-23T19:25:30.517Z,15.50
2022-10-23T19:28:04.359Z,15.50
2022-10-23T19:30:37.203Z,15.50
2022-10-23T19:33:09.961Z,15.50
2022-10-23T19:35:42.814Z,15.40
2022-10-23T19:38:15.606Z,15.40
2022-10-23T19:40:51.763Z,15.40
2022-10-23T19:43:24.644Z,15.40
2022-10-23T19:46:00.371Z,15.40
2022-10-23T19:48:33.413Z,15.40
2022-10-23T19:51:08.341Z,15.40
2022-10-23T19:53:42.546Z,15.40
2022-10-23T19:56:15.438Z,15.30
2022-10-23T19:58:49.446Z,15.30
2022-10-23T20:01:33.054Z,15.20
2022-10-23T20:04:06.095Z,15.20
2022-10-23T20:06:38.996Z,15.20
2022-10-23T20:09:11.834Z,15.30
2022-10-23T20:11:45.085Z,15.30
2022-10-23T20:14:19.099Z,15.30
2022-10-23T20:16:55.710Z,15.40
2022-10-23T20:19:31.503Z,15.40
2022-10-23T20:22:04.694Z,15.50
2022-10-23T20:24:42.189Z,15.50
2022-10-23T20:27:15.201Z,15.40
2022-10-23T20:29:48.619Z,15.40
2022-10-23T20:32:21.535Z,15.40
2022-10-23T20:34:56.741Z,15.40
2022-10-23T20:37:37.221Z,15.40
2022-10-23T20:40:10.717Z,15.40
2022-10-23T20:42:46.015Z,15.40
2022-10-23T20:45:19.119Z,15.40
2022-10-23T20:47:53.868Z,15.40
2022-10-23T20:50:28.607Z,15.40
2022-10-23T20:53:02.562Z,15.40
2022-10-23T20:55:40.980Z,15.40
2022-10-23T20:58:15.062Z,15.40
2022-10-23T21:00:55.287Z,15.40
2022-10-23T21:03:28.528Z,15.40
2022-10-23T21:06:08.837Z,15.40
2022-10-23T21:08:42.526Z,15.30
2022-10-23T21:11:17.697Z,15.30
2022-10-23T21:13:51.577Z,15.30
2022-10-23T21:16:30.234Z,15.30
2022-10-23T21:19:04.233Z,15.30
2022-10-23T21:21:37.394Z,15.30
2022-10-23T21:24:15.358Z,15.30
2022-10-23T21:26:48.327Z,15.20
2022-10-23T21:29:21.192Z,15.20
2022-10-23T21:31:59.680Z,15.20
2022-10-23T21:34:32.711Z,15.10
2022-10-23T21:37:13.374Z,15.00
2022-10-23T21:39:51.957Z,15.00
2022-10-23T21:42:25.257Z,15.00
2022-10-23T21:44:59.589Z,15.00
2022-10-23T21:47:34.779Z,15.00
2022-10-23T21:50:10.203Z,14.90
2022-10-23T21:52:45.844Z,14.90
2022-10-23T21:55:21.986Z,14.90
2022-10-23T21:57:55.187Z,14.80
2022-10-23T22:00:30.270Z,14.80
2022-10-23T22:03:13.973Z,14.70
2022-10-23T22:05:58.312Z,14.70
2022-10-23T22:11:31.761Z,14.60
2022-10-23T22:14:07.546Z,14.60
2022-10-23T22:16:42.542Z,14.60
2022-10-23T22:19:19.325Z,14.60
2022-10-23T22:22:01.545Z,14.60
2022-10-23T22:24:48.584Z,14.50
2022-10-23T22:27:25.125Z,14.50
2022-10-23T22:30:03.766Z,14.50
2022-10-23T22:32:46.080Z,14.40
2022-10-23T22:35:31.529Z,14.50
2022-10-23T22:38:38.358Z,14.40
2022-10-23T22:41:25.574Z,14.40
2022-10-23T22:44:16.556Z,14.40
2022-10-23T22:50:12.520Z,14.30
2022-10-23T22:52:49.513Z,14.30
2022-10-23T22:55:34.785Z,14.30
2022-10-23T22:58:16.706Z,14.30
2022-10-23T23:01:02.403Z,14.30
2022-10-23T23:03:45.019Z,14.30
2022-10-23T23:06:24.248Z,14.30
2022-10-23T23:09:01.242Z,14.20
2022-10-23T23:11:51.662Z,14.30
2022-10-23T23:14:28.357Z,14.30
2022-10-23T23:17:07.843Z,14.30
2022-10-23T23:19:41.586Z,14.30
2022-10-23T23:22:20.224Z,14.20
2022-10-23T23:24:55.797Z,14.30
2022-10-23T23:27:35.389Z,14.20
2022-10-23T23:30:13.618Z,14.20
2022-10-23T23:32:50.965Z,14.20
2022-10-23T23:35:25.406Z,14.20
2022-10-23T23:38:04.180Z,14.20
2022-10-23T23:41:13.126Z,14.20
2022-10-23T23:43:53.562Z,14.20
2022-10-23T23:49:46.010Z,14.10
2022-10-23T23:52:28.917Z,14.10
2022-10-23T23:55:23.228Z,14.10
2022-10-23T23:57:58.701Z,14.00
